sensor_id;sensor_type;location;lat;lon;timestamp;temperature;humidity
44229;DHT22;29904;51.058;5.378;2023-04-07T00:01:03;9.20;99.90
44229;DHT22;29904;51.058;5.378;2023-04-07T00:03:28;9.20;99.90
44229;DHT22;29904;51.058;5.378;2023-04-07T00:05:55;9.10;99.90
44229;DHT22;29904;51.058;5.378;2023-04-07T00:08:22;9.10;99.90
44229;DHT22;29904;51.058;5.378;2023-04-07T00:10:48;9.20;99.90
44229;DHT22;29904;51.058;5.378;2023-04-07T00:13:14;9.10;99.90
44229;DHT22;29904;51.058;5.378;2023-04-07T00:15:41;9.10;99.90
44229;DHT22;29904;51.058;5.378;2023-04-07T00:18:07;9.00;99.90
44229;DHT22;29904;51.058;5.378;2023-04-07T00:20:32;9.00;99.90
44229;DHT22;29904;51.058;5.378;2023-04-07T00:23:00;9.00;99.90
44229;DHT22;29904;51.058;5.378;2023-04-07T00:25:26;8.90;99.90
44229;DHT22;29904;51.058;5.378;2023-04-07T00:27:51;8.80;99.90
44229;DHT22;29904;51.058;5.378;2023-04-07T00:30:19;8.80;99.90
44229;DHT22;29904;51.058;5.378;2023-04-07T00:32:45;8.70;99.90
44229;DHT22;29904;51.058;5.378;2023-04-07T00:35:11;8.80;99.90
44229;DHT22;29904;51.058;5.378;2023-04-07T00:37:39;8.70;99.90
44229;DHT22;29904;51.058;5.378;2023-04-07T00:40:05;8.80;99.90
44229;DHT22;29904;51.058;5.378;2023-04-07T00:42:32;8.80;99.90
44229;DHT22;29904;51.058;5.378;2023-04-07T00:44:58;8.80;99.90
44229;DHT22;29904;51.058;5.378;2023-04-07T00:47:24;8.70;99.90
44229;DHT22;29904;51.058;5.378;2023-04-07T00:49:50;8.70;99.90
44229;DHT22;29904;51.058;5.378;2023-04-07T00:52:16;8.70;99.90
44229;DHT22;29904;51.058;5.378;2023-04-07T00:54:43;8.70;99.90
44229;DHT22;29904;51.058;5.378;2023-04-07T00:57:11;8.70;99.90
44229;DHT22;29904;51.058;5.378;2023-04-07T00:59:37;8.70;99.90
44229;DHT22;29904;51.058;5.378;2023-04-07T01:04:48;8.60;99.90
44229;DHT22;29904;51.058;5.378;2023-04-07T01:07:23;8.60;99.90
44229;DHT22;29904;51.058;5.378;2023-04-07T01:10:00;8.60;99.90
44229;DHT22;29904;51.058;5.378;2023-04-07T01:12:43;8.60;99.90
44229;DHT22;29904;51.058;5.378;2023-04-07T01:15:13;8.60;99.90
44229;DHT22;29904;51.058;5.378;2023-04-07T01:17:44;8.60;99.90
44229;DHT22;29904;51.058;5.378;2023-04-07T01:20:16;8.70;99.90
44229;DHT22;29904;51.058;5.378;2023-04-07T01:22:46;8.70;99.90
44229;DHT22;29904;51.058;5.378;2023-04-07T01:25:17;8.70;99.90
44229;DHT22;29904;51.058;5.378;2023-04-07T01:30:33;8.70;99.90
44229;DHT22;29904;51.058;5.378;2023-04-07T01:33:00;8.70;99.90
44229;DHT22;29904;51.058;5.378;2023-04-07T01:35:31;8.80;99.90
44229;DHT22;29904;51.058;5.378;2023-04-07T01:37:59;8.80;99.90
44229;DHT22;29904;51.058;5.378;2023-04-07T01:40:27;8.80;99.90
44229;DHT22;29904;51.058;5.378;2023-04-07T01:42:55;8.80;99.90
44229;DHT22;29904;51.058;5.378;2023-04-07T01:45:21;8.80;99.90
44229;DHT22;29904;51.058;5.378;2023-04-07T01:47:49;8.70;99.90
44229;DHT22;29904;51.058;5.378;2023-04-07T01:50:15;8.70;99.90
44229;DHT22;29904;51.058;5.378;2023-04-07T01:52:42;8.70;99.90
44229;DHT22;29904;51.058;5.378;2023-04-07T01:55:09;8.70;99.90
44229;DHT22;29904;51.058;5.378;2023-04-07T01:57:35;8.70;99.90
44229;DHT22;29904;51.058;5.378;2023-04-07T02:00:01;8.70;99.90
44229;DHT22;29904;51.058;5.378;2023-04-07T02:02:27;8.70;99.90
44229;DHT22;29904;51.058;5.378;2023-04-07T02:04:54;8.80;99.90
44229;DHT22;29904;51.058;5.378;2023-04-07T02:10:09;8.90;99.90
44229;DHT22;29904;51.058;5.378;2023-04-07T02:12:37;8.90;99.90
44229;DHT22;29904;51.058;5.378;2023-04-07T02:15:06;9.00;99.90
44229;DHT22;29904;51.058;5.378;2023-04-07T02:17:37;9.00;99.90
44229;DHT22;29904;51.058;5.378;2023-04-07T02:20:06;9.00;99.90
44229;DHT22;29904;51.058;5.378;2023-04-07T02:22:32;9.00;99.90
44229;DHT22;29904;51.058;5.378;2023-04-07T02:24:58;9.00;99.90
44229;DHT22;29904;51.058;5.378;2023-04-07T02:27:24;9.10;99.90
44229;DHT22;29904;51.058;5.378;2023-04-07T02:29:49;9.10;99.90
44229;DHT22;29904;51.058;5.378;2023-04-07T02:32:15;9.10;99.90
44229;DHT22;29904;51.058;5.378;2023-04-07T02:34:42;9.10;99.90
44229;DHT22;29904;51.058;5.378;2023-04-07T02:37:08;9.10;99.90
44229;DHT22;29904;51.058;5.378;2023-04-07T02:39:33;9.00;99.90
44229;DHT22;29904;51.058;5.378;2023-04-07T02:42:02;9.00;99.90
44229;DHT22;29904;51.058;5.378;2023-04-07T02:44:27;8.90;99.90
44229;DHT22;29904;51.058;5.378;2023-04-07T02:46:53;8.90;99.90
44229;DHT22;29904;51.058;5.378;2023-04-07T02:49:19;8.90;99.90
44229;DHT22;29904;51.058;5.378;2023-04-07T02:51:45;8.90;99.90
44229;DHT22;29904;51.058;5.378;2023-04-07T02:54:11;8.90;99.90
44229;DHT22;29904;51.058;5.378;2023-04-07T02:56:37;8.80;99.90
44229;DHT22;29904;51.058;5.378;2023-04-07T02:59:05;8.80;99.90
44229;DHT22;29904;51.058;5.378;2023-04-07T03:01:30;8.80;99.90
44229;DHT22;29904;51.058;5.378;2023-04-07T03:03:56;8.70;99.90
44229;DHT22;29904;51.058;5.378;2023-04-07T03:06:22;8.70;99.90
44229;DHT22;29904;51.058;5.378;2023-04-07T03:08:47;8.80;99.90
44229;DHT22;29904;51.058;5.378;2023-04-07T03:11:13;8.80;99.90
44229;DHT22;29904;51.058;5.378;2023-04-07T03:13:39;8.80;99.90
44229;DHT22;29904;51.058;5.378;2023-04-07T03:16:07;8.70;99.90
44229;DHT22;29904;51.058;5.378;2023-04-07T03:18:32;8.70;99.90
44229;DHT22;29904;51.058;5.378;2023-04-07T03:20:58;8.70;99.90
44229;DHT22;29904;51.058;5.378;2023-04-07T03:23:24;8.70;99.90
44229;DHT22;29904;51.058;5.378;2023-04-07T03:25:50;8.70;99.90
44229;DHT22;29904;51.058;5.378;2023-04-07T03:28:16;8.70;99.90
44229;DHT22;29904;51.058;5.378;2023-04-07T03:30:44;8.70;99.90
44229;DHT22;29904;51.058;5.378;2023-04-07T03:33:11;8.70;99.90
44229;DHT22;29904;51.058;5.378;2023-04-07T03:35:37;8.80;99.90
44229;DHT22;29904;51.058;5.378;2023-04-07T03:38:04;8.80;99.90
44229;DHT22;29904;51.058;5.378;2023-04-07T03:40:30;8.80;99.90
44229;DHT22;29904;51.058;5.378;2023-04-07T03:42:57;8.70;99.90
44229;DHT22;29904;51.058;5.378;2023-04-07T03:45:23;8.70;99.90
44229;DHT22;29904;51.058;5.378;2023-04-07T03:47:51;8.70;99.90
44229;DHT22;29904;51.058;5.378;2023-04-07T03:50:18;8.80;99.90
44229;DHT22;29904;51.058;5.378;2023-04-07T03:52:44;8.80;99.90
44229;DHT22;29904;51.058;5.378;2023-04-07T03:55:10;8.70;99.90
44229;DHT22;29904;51.058;5.378;2023-04-07T03:57:36;8.70;99.90
44229;DHT22;29904;51.058;5.378;2023-04-07T04:00:02;8.70;99.90
44229;DHT22;29904;51.058;5.378;2023-04-07T04:02:30;8.70;99.90
44229;DHT22;29904;51.058;5.378;2023-04-07T04:04:55;8.70;99.90
44229;DHT22;29904;51.058;5.378;2023-04-07T04:07:21;8.60;99.90
44229;DHT22;29904;51.058;5.378;2023-04-07T04:09:47;8.60;99.90
44229;DHT22;29904;51.058;5.378;2023-04-07T04:12:12;8.60;99.90
44229;DHT22;29904;51.058;5.378;2023-04-07T04:14:38;8.50;99.90
44229;DHT22;29904;51.058;5.378;2023-04-07T04:17:04;8.50;99.90
44229;DHT22;29904;51.058;5.378;2023-04-07T04:19:32;8.40;99.90
44229;DHT22;29904;51.058;5.378;2023-04-07T04:21:57;8.40;99.90
44229;DHT22;29904;51.058;5.378;2023-04-07T04:24:23;8.40;99.90
44229;DHT22;29904;51.058;5.378;2023-04-07T04:26:49;8.50;99.90
44229;DHT22;29904;51.058;5.378;2023-04-07T04:29:15;8.50;99.90
44229;DHT22;29904;51.058;5.378;2023-04-07T04:31:40;8.40;99.90
44229;DHT22;29904;51.058;5.378;2023-04-07T04:34:06;8.40;99.90
44229;DHT22;29904;51.058;5.378;2023-04-07T04:36:32;8.40;99.90
44229;DHT22;29904;51.058;5.378;2023-04-07T04:38:58;8.40;99.90
44229;DHT22;29904;51.058;5.378;2023-04-07T04:41:24;8.40;99.90
44229;DHT22;29904;51.058;5.378;2023-04-07T04:43:49;8.40;99.90
44229;DHT22;29904;51.058;5.378;2023-04-07T04:46:16;8.40;99.90
44229;DHT22;29904;51.058;5.378;2023-04-07T04:48:43;8.40;99.90
44229;DHT22;29904;51.058;5.378;2023-04-07T04:51:11;8.40;99.90
44229;DHT22;29904;51.058;5.378;2023-04-07T04:53:37;8.40;99.90
44229;DHT22;29904;51.058;5.378;2023-04-07T04:56:03;8.30;99.90
44229;DHT22;29904;51.058;5.378;2023-04-07T04:58:28;8.30;99.90
44229;DHT22;29904;51.058;5.378;2023-04-07T05:00:54;8.30;99.90
44229;DHT22;29904;51.058;5.378;2023-04-07T05:03:25;8.30;99.90
44229;DHT22;29904;51.058;5.378;2023-04-07T05:05:51;8.30;99.90
44229;DHT22;29904;51.058;5.378;2023-04-07T05:08:17;8.20;99.90
44229;DHT22;29904;51.058;5.378;2023-04-07T05:10:42;8.10;99.90
44229;DHT22;29904;51.058;5.378;2023-04-07T05:13:10;8.10;99.90
44229;DHT22;29904;51.058;5.378;2023-04-07T05:15:36;8.00;99.90
44229;DHT22;29904;51.058;5.378;2023-04-07T05:18:02;7.90;99.90
44229;DHT22;29904;51.058;5.378;2023-04-07T05:20:30;7.90;99.90
44229;DHT22;29904;51.058;5.378;2023-04-07T05:22:55;7.80;99.90
44229;DHT22;29904;51.058;5.378;2023-04-07T05:25:21;7.80;99.90
44229;DHT22;29904;51.058;5.378;2023-04-07T05:27:47;7.80;99.90
44229;DHT22;29904;51.058;5.378;2023-04-07T05:30:13;7.80;99.90
44229;DHT22;29904;51.058;5.378;2023-04-07T05:32:39;7.80;99.90
44229;DHT22;29904;51.058;5.378;2023-04-07T05:35:07;7.70;99.90
44229;DHT22;29904;51.058;5.378;2023-04-07T05:37:33;7.70;99.90
44229;DHT22;29904;51.058;5.378;2023-04-07T05:39:59;7.70;99.90
44229;DHT22;29904;51.058;5.378;2023-04-07T05:42:24;7.60;99.90
44229;DHT22;29904;51.058;5.378;2023-04-07T05:44:51;7.70;99.90
44229;DHT22;29904;51.058;5.378;2023-04-07T05:47:16;7.70;99.90
44229;DHT22;29904;51.058;5.378;2023-04-07T05:49:42;7.70;99.90
44229;DHT22;29904;51.058;5.378;2023-04-07T05:52:12;7.80;99.90
44229;DHT22;29904;51.058;5.378;2023-04-07T05:54:38;7.90;99.90
44229;DHT22;29904;51.058;5.378;2023-04-07T05:57:06;8.00;99.90
44229;DHT22;29904;51.058;5.378;2023-04-07T05:59:33;8.00;99.90
44229;DHT22;29904;51.058;5.378;2023-04-07T06:01:59;8.10;99.90
44229;DHT22;29904;51.058;5.378;2023-04-07T06:04:25;8.20;99.90
44229;DHT22;29904;51.058;5.378;2023-04-07T06:06:51;8.30;99.90
44229;DHT22;29904;51.058;5.378;2023-04-07T06:09:20;8.30;99.90
44229;DHT22;29904;51.058;5.378;2023-04-07T06:11:45;8.30;99.90
44229;DHT22;29904;51.058;5.378;2023-04-07T06:14:13;8.30;99.90
44229;DHT22;29904;51.058;5.378;2023-04-07T06:16:39;8.30;99.90
44229;DHT22;29904;51.058;5.378;2023-04-07T06:19:05;8.30;99.90
44229;DHT22;29904;51.058;5.378;2023-04-07T06:21:32;8.30;99.90
44229;DHT22;29904;51.058;5.378;2023-04-07T06:23:58;8.20;99.90
44229;DHT22;29904;51.058;5.378;2023-04-07T06:26:24;8.20;99.90
44229;DHT22;29904;51.058;5.378;2023-04-07T06:28:50;8.30;99.90
44229;DHT22;29904;51.058;5.378;2023-04-07T06:31:16;8.30;99.90
44229;DHT22;29904;51.058;5.378;2023-04-07T06:33:43;8.30;99.90
44229;DHT22;29904;51.058;5.378;2023-04-07T06:36:09;8.30;99.90
44229;DHT22;29904;51.058;5.378;2023-04-07T06:38:36;8.40;99.90
44229;DHT22;29904;51.058;5.378;2023-04-07T06:41:01;8.30;99.90
44229;DHT22;29904;51.058;5.378;2023-04-07T06:43:27;8.40;99.90
44229;DHT22;29904;51.058;5.378;2023-04-07T06:45:53;8.40;99.90
44229;DHT22;29904;51.058;5.378;2023-04-07T06:48:18;8.50;99.90
44229;DHT22;29904;51.058;5.378;2023-04-07T06:50:52;8.50;99.90
44229;DHT22;29904;51.058;5.378;2023-04-07T06:53:18;8.60;99.90
44229;DHT22;29904;51.058;5.378;2023-04-07T06:55:45;8.70;99.90
44229;DHT22;29904;51.058;5.378;2023-04-07T06:58:11;8.70;99.90
44229;DHT22;29904;51.058;5.378;2023-04-07T07:00:36;8.80;99.90
44229;DHT22;29904;51.058;5.378;2023-04-07T07:03:02;9.00;99.90
44229;DHT22;29904;51.058;5.378;2023-04-07T07:05:28;9.00;99.90
44229;DHT22;29904;51.058;5.378;2023-04-07T07:07:56;9.10;99.90
44229;DHT22;29904;51.058;5.378;2023-04-07T07:10:22;9.20;99.90
44229;DHT22;29904;51.058;5.378;2023-04-07T07:12:48;9.30;99.90
44229;DHT22;29904;51.058;5.378;2023-04-07T07:15:16;9.50;99.90
44229;DHT22;29904;51.058;5.378;2023-04-07T07:17:43;9.60;99.90
44229;DHT22;29904;51.058;5.378;2023-04-07T07:20:09;9.70;99.90
44229;DHT22;29904;51.058;5.378;2023-04-07T07:22:35;9.80;99.90
44229;DHT22;29904;51.058;5.378;2023-04-07T07:25:01;9.90;99.90
44229;DHT22;29904;51.058;5.378;2023-04-07T07:27:27;10.00;99.90
44229;DHT22;29904;51.058;5.378;2023-04-07T07:29:54;10.10;99.90
44229;DHT22;29904;51.058;5.378;2023-04-07T07:32:20;10.10;99.90
44229;DHT22;29904;51.058;5.378;2023-04-07T07:34:46;10.00;99.90
44229;DHT22;29904;51.058;5.378;2023-04-07T07:37:12;10.00;99.90
44229;DHT22;29904;51.058;5.378;2023-04-07T07:39:38;9.90;99.90
44229;DHT22;29904;51.058;5.378;2023-04-07T07:42:04;9.90;99.90
44229;DHT22;29904;51.058;5.378;2023-04-07T07:44:29;9.90;99.90
44229;DHT22;29904;51.058;5.378;2023-04-07T07:46:55;9.90;99.90
44229;DHT22;29904;51.058;5.378;2023-04-07T07:49:21;9.90;99.90
44229;DHT22;29904;51.058;5.378;2023-04-07T07:51:46;10.00;99.90
44229;DHT22;29904;51.058;5.378;2023-04-07T07:54:12;9.90;99.90
44229;DHT22;29904;51.058;5.378;2023-04-07T07:56:38;9.90;99.90
44229;DHT22;29904;51.058;5.378;2023-04-07T07:59:04;9.90;99.90
44229;DHT22;29904;51.058;5.378;2023-04-07T08:01:33;10.00;99.90
44229;DHT22;29904;51.058;5.378;2023-04-07T08:03:59;10.00;99.90
44229;DHT22;29904;51.058;5.378;2023-04-07T08:06:24;10.10;99.90
44229;DHT22;29904;51.058;5.378;2023-04-07T08:08:51;10.10;99.90
44229;DHT22;29904;51.058;5.378;2023-04-07T08:11:17;10.10;99.90
44229;DHT22;29904;51.058;5.378;2023-04-07T08:13:42;10.10;99.90
44229;DHT22;29904;51.058;5.378;2023-04-07T08:16:12;10.20;99.90
44229;DHT22;29904;51.058;5.378;2023-04-07T08:18:38;10.20;99.90
44229;DHT22;29904;51.058;5.378;2023-04-07T08:21:04;10.20;99.90
44229;DHT22;29904;51.058;5.378;2023-04-07T08:23:31;10.30;99.90
44229;DHT22;29904;51.058;5.378;2023-04-07T08:25:56;10.30;99.90
44229;DHT22;29904;51.058;5.378;2023-04-07T08:28:24;10.40;99.90
44229;DHT22;29904;51.058;5.378;2023-04-07T08:30:52;10.50;99.90
44229;DHT22;29904;51.058;5.378;2023-04-07T08:33:20;10.60;99.90
44229;DHT22;29904;51.058;5.378;2023-04-07T08:35:46;10.90;99.90
44229;DHT22;29904;51.058;5.378;2023-04-07T08:38:14;11.20;99.90
44229;DHT22;29904;51.058;5.378;2023-04-07T08:40:40;11.40;99.90
44229;DHT22;29904;51.058;5.378;2023-04-07T08:43:08;11.60;99.90
44229;DHT22;29904;51.058;5.378;2023-04-07T08:45:38;11.80;99.90
44229;DHT22;29904;51.058;5.378;2023-04-07T08:48:10;12.00;99.90
44229;DHT22;29904;51.058;5.378;2023-04-07T08:50:39;12.10;99.90
44229;DHT22;29904;51.058;5.378;2023-04-07T08:53:08;12.30;99.90
44229;DHT22;29904;51.058;5.378;2023-04-07T08:55:35;12.30;99.90
44229;DHT22;29904;51.058;5.378;2023-04-07T08:58:02;12.50;99.90
44229;DHT22;29904;51.058;5.378;2023-04-07T09:00:28;12.60;99.90
44229;DHT22;29904;51.058;5.378;2023-04-07T09:02:54;12.50;99.90
44229;DHT22;29904;51.058;5.378;2023-04-07T09:05:22;12.40;99.90
44229;DHT22;29904;51.058;5.378;2023-04-07T09:07:49;12.10;99.90
44229;DHT22;29904;51.058;5.378;2023-04-07T09:10:15;11.90;99.90
44229;DHT22;29904;51.058;5.378;2023-04-07T09:12:44;11.80;99.90
44229;DHT22;29904;51.058;5.378;2023-04-07T09:15:09;11.90;99.90
44229;DHT22;29904;51.058;5.378;2023-04-07T09:17:35;11.90;99.90
44229;DHT22;29904;51.058;5.378;2023-04-07T09:20:01;11.90;99.90
44229;DHT22;29904;51.058;5.378;2023-04-07T09:25:30;12.00;99.90
44229;DHT22;29904;51.058;5.378;2023-04-07T09:28:02;11.60;99.90
44229;DHT22;29904;51.058;5.378;2023-04-07T09:30:30;11.50;99.90
44229;DHT22;29904;51.058;5.378;2023-04-07T09:32:56;11.20;99.90
44229;DHT22;29904;51.058;5.378;2023-04-07T09:35:22;11.10;99.90
44229;DHT22;29904;51.058;5.378;2023-04-07T09:38:06;10.90;99.90
44229;DHT22;29904;51.058;5.378;2023-04-07T09:40:33;10.80;99.90
44229;DHT22;29904;51.058;5.378;2023-04-07T09:43:00;10.80;99.90
44229;DHT22;29904;51.058;5.378;2023-04-07T09:45:28;10.80;99.90
44229;DHT22;29904;51.058;5.378;2023-04-07T09:47:54;10.80;99.90
44229;DHT22;29904;51.058;5.378;2023-04-07T09:50:52;10.90;99.90
44229;DHT22;29904;51.058;5.378;2023-04-07T09:53:50;11.00;99.90
44229;DHT22;29904;51.058;5.378;2023-04-07T09:56:17;11.00;99.90
44229;DHT22;29904;51.058;5.378;2023-04-07T09:58:46;11.00;99.90
44229;DHT22;29904;51.058;5.378;2023-04-07T10:01:14;11.00;99.90
44229;DHT22;29904;51.058;5.378;2023-04-07T10:03:41;11.20;99.90
44229;DHT22;29904;51.058;5.378;2023-04-07T10:06:07;11.40;99.90
44229;DHT22;29904;51.058;5.378;2023-04-07T10:08:34;11.60;99.90
44229;DHT22;29904;51.058;5.378;2023-04-07T10:11:01;11.70;99.90
44229;DHT22;29904;51.058;5.378;2023-04-07T10:13:30;11.80;99.90
44229;DHT22;29904;51.058;5.378;2023-04-07T10:15:57;11.90;99.90
44229;DHT22;29904;51.058;5.378;2023-04-07T10:18:28;11.90;99.90
44229;DHT22;29904;51.058;5.378;2023-04-07T10:21:00;11.90;99.90
44229;DHT22;29904;51.058;5.378;2023-04-07T10:23:50;11.90;99.90
44229;DHT22;29904;51.058;5.378;2023-04-07T10:26:21;11.90;99.90
44229;DHT22;29904;51.058;5.378;2023-04-07T10:28:51;12.00;99.90
44229;DHT22;29904;51.058;5.378;2023-04-07T10:31:18;12.20;99.90
44229;DHT22;29904;51.058;5.378;2023-04-07T10:33:46;12.50;99.90
44229;DHT22;29904;51.058;5.378;2023-04-07T10:36:13;12.70;99.90
44229;DHT22;29904;51.058;5.378;2023-04-07T10:38:38;12.80;99.90
44229;DHT22;29904;51.058;5.378;2023-04-07T10:41:39;12.70;99.90
44229;DHT22;29904;51.058;5.378;2023-04-07T10:44:06;12.30;99.90
44229;DHT22;29904;51.058;5.378;2023-04-07T10:49:15;11.90;99.90
44229;DHT22;29904;51.058;5.378;2023-04-07T10:51:41;12.00;99.90
44229;DHT22;29904;51.058;5.378;2023-04-07T10:54:22;12.40;99.90
44229;DHT22;29904;51.058;5.378;2023-04-07T10:59:32;13.10;99.90
44229;DHT22;29904;51.058;5.378;2023-04-07T11:04:44;13.60;99.90
44229;DHT22;29904;51.058;5.378;2023-04-07T11:07:12;12.50;99.90
44229;DHT22;29904;51.058;5.378;2023-04-07T11:09:38;13.90;99.90
44229;DHT22;29904;51.058;5.378;2023-04-07T11:12:04;13.50;99.90
44229;DHT22;29904;51.058;5.378;2023-04-07T11:14:33;13.20;99.90
44229;DHT22;29904;51.058;5.378;2023-04-07T11:17:02;13.00;99.90
44229;DHT22;29904;51.058;5.378;2023-04-07T11:19:28;12.80;99.90
44229;DHT22;29904;51.058;5.378;2023-04-07T11:22:15;12.80;99.90
44229;DHT22;29904;51.058;5.378;2023-04-07T11:24:41;12.80;99.90
44229;DHT22;29904;51.058;5.378;2023-04-07T11:27:14;12.60;99.90
44229;DHT22;29904;51.058;5.378;2023-04-07T11:29:40;12.60;99.90
44229;DHT22;29904;51.058;5.378;2023-04-07T11:32:06;12.80;99.90
44229;DHT22;29904;51.058;5.378;2023-04-07T11:34:34;12.70;99.90
44229;DHT22;29904;51.058;5.378;2023-04-07T11:37:24;12.90;99.90
44229;DHT22;29904;51.058;5.378;2023-04-07T11:39:54;13.20;99.90
44229;DHT22;29904;51.058;5.378;2023-04-07T11:42:34;13.20;99.90
44229;DHT22;29904;51.058;5.378;2023-04-07T11:45:01;13.00;99.90
44229;DHT22;29904;51.058;5.378;2023-04-07T11:47:34;12.90;99.90
44229;DHT22;29904;51.058;5.378;2023-04-07T11:50:00;12.50;99.90
44229;DHT22;29904;51.058;5.378;2023-04-07T11:52:26;12.10;99.90
44229;DHT22;29904;51.058;5.378;2023-04-07T11:54:52;11.70;99.90
44229;DHT22;29904;51.058;5.378;2023-04-07T11:57:29;11.40;99.90
44229;DHT22;29904;51.058;5.378;2023-04-07T12:00:05;11.30;99.90
44229;DHT22;29904;51.058;5.378;2023-04-07T12:02:34;11.20;99.90
44229;DHT22;29904;51.058;5.378;2023-04-07T12:05:00;11.10;99.90
44229;DHT22;29904;51.058;5.378;2023-04-07T12:07:26;11.00;99.90
44229;DHT22;29904;51.058;5.378;2023-04-07T12:09:54;11.00;99.90
44229;DHT22;29904;51.058;5.378;2023-04-07T12:12:27;11.00;99.90
44229;DHT22;29904;51.058;5.378;2023-04-07T12:14:54;11.10;99.90
44229;DHT22;29904;51.058;5.378;2023-04-07T12:17:24;11.20;99.90
44229;DHT22;29904;51.058;5.378;2023-04-07T12:19:51;11.40;99.90
44229;DHT22;29904;51.058;5.378;2023-04-07T12:22:17;11.40;99.90
44229;DHT22;29904;51.058;5.378;2023-04-07T12:24:43;11.40;99.90
44229;DHT22;29904;51.058;5.378;2023-04-07T12:27:08;11.60;99.90
44229;DHT22;29904;51.058;5.378;2023-04-07T12:29:34;11.70;99.90
44229;DHT22;29904;51.058;5.378;2023-04-07T12:32:08;11.80;99.90
44229;DHT22;29904;51.058;5.378;2023-04-07T12:34:34;12.00;99.90
44229;DHT22;29904;51.058;5.378;2023-04-07T12:37:02;12.10;99.90
44229;DHT22;29904;51.058;5.378;2023-04-07T12:39:28;12.00;99.90
44229;DHT22;29904;51.058;5.378;2023-04-07T12:41:53;12.00;99.90
44229;DHT22;29904;51.058;5.378;2023-04-07T12:44:19;12.00;99.90
44229;DHT22;29904;51.058;5.378;2023-04-07T12:46:47;11.90;99.90
44229;DHT22;29904;51.058;5.378;2023-04-07T12:49:13;11.70;99.90
44229;DHT22;29904;51.058;5.378;2023-04-07T12:51:38;11.70;99.90
44229;DHT22;29904;51.058;5.378;2023-04-07T12:54:06;11.90;99.90
44229;DHT22;29904;51.058;5.378;2023-04-07T12:56:32;11.90;99.90
44229;DHT22;29904;51.058;5.378;2023-04-07T12:58:58;12.10;99.90
44229;DHT22;29904;51.058;5.378;2023-04-07T13:01:25;12.50;99.90
44229;DHT22;29904;51.058;5.378;2023-04-07T13:03:51;12.90;99.90
44229;DHT22;29904;51.058;5.378;2023-04-07T13:06:17;13.00;99.90
44229;DHT22;29904;51.058;5.378;2023-04-07T13:08:43;13.00;99.90
44229;DHT22;29904;51.058;5.378;2023-04-07T13:11:09;12.90;99.90
44229;DHT22;29904;51.058;5.378;2023-04-07T13:13:35;12.70;99.90
44229;DHT22;29904;51.058;5.378;2023-04-07T13:16:01;12.50;99.90
44229;DHT22;29904;51.058;5.378;2023-04-07T13:18:27;12.40;99.90
44229;DHT22;29904;51.058;5.378;2023-04-07T13:20:52;12.30;99.90
44229;DHT22;29904;51.058;5.378;2023-04-07T13:23:18;12.30;99.90
44229;DHT22;29904;51.058;5.378;2023-04-07T13:25:44;12.20;99.90
44229;DHT22;29904;51.058;5.378;2023-04-07T13:28:09;12.20;99.90
44229;DHT22;29904;51.058;5.378;2023-04-07T13:30:36;12.10;99.90
44229;DHT22;29904;51.058;5.378;2023-04-07T13:33:01;11.90;99.90
44229;DHT22;29904;51.058;5.378;2023-04-07T13:35:27;11.80;99.90
44229;DHT22;29904;51.058;5.378;2023-04-07T13:37:57;11.70;99.90
44229;DHT22;29904;51.058;5.378;2023-04-07T13:40:23;11.80;99.90
44229;DHT22;29904;51.058;5.378;2023-04-07T13:42:49;11.90;99.90
44229;DHT22;29904;51.058;5.378;2023-04-07T13:45:15;11.80;99.90
44229;DHT22;29904;51.058;5.378;2023-04-07T13:47:40;11.70;99.90
44229;DHT22;29904;51.058;5.378;2023-04-07T13:50:06;11.70;99.90
44229;DHT22;29904;51.058;5.378;2023-04-07T13:52:32;11.80;99.90
44229;DHT22;29904;51.058;5.378;2023-04-07T13:55:00;11.80;99.90
44229;DHT22;29904;51.058;5.378;2023-04-07T13:57:27;11.90;99.90
44229;DHT22;29904;51.058;5.378;2023-04-07T13:59:56;11.90;99.90
44229;DHT22;29904;51.058;5.378;2023-04-07T14:02:24;11.70;99.90
44229;DHT22;29904;51.058;5.378;2023-04-07T14:04:52;11.60;99.90
44229;DHT22;29904;51.058;5.378;2023-04-07T14:07:17;11.40;99.90
44229;DHT22;29904;51.058;5.378;2023-04-07T14:09:43;11.40;99.90
44229;DHT22;29904;51.058;5.378;2023-04-07T14:12:10;11.60;99.90
44229;DHT22;29904;51.058;5.378;2023-04-07T14:14:36;11.50;99.90
44229;DHT22;29904;51.058;5.378;2023-04-07T14:17:04;11.50;99.90
44229;DHT22;29904;51.058;5.378;2023-04-07T14:19:30;11.60;99.90
44229;DHT22;29904;51.058;5.378;2023-04-07T14:21:57;11.70;99.90
44229;DHT22;29904;51.058;5.378;2023-04-07T14:24:25;11.80;99.90
44229;DHT22;29904;51.058;5.378;2023-04-07T14:26:51;11.90;99.90
44229;DHT22;29904;51.058;5.378;2023-04-07T14:29:19;11.90;99.90
44229;DHT22;29904;51.058;5.378;2023-04-07T14:31:47;12.00;99.90
44229;DHT22;29904;51.058;5.378;2023-04-07T14:34:13;12.20;99.90
44229;DHT22;29904;51.058;5.378;2023-04-07T14:36:39;12.40;99.90
44229;DHT22;29904;51.058;5.378;2023-04-07T14:39:05;12.30;99.90
44229;DHT22;29904;51.058;5.378;2023-04-07T14:41:30;12.30;99.90
44229;DHT22;29904;51.058;5.378;2023-04-07T14:43:56;12.30;99.90
44229;DHT22;29904;51.058;5.378;2023-04-07T14:46:23;12.40;99.90
44229;DHT22;29904;51.058;5.378;2023-04-07T14:48:50;12.60;99.90
44229;DHT22;29904;51.058;5.378;2023-04-07T14:51:19;12.60;99.90
44229;DHT22;29904;51.058;5.378;2023-04-07T14:53:47;12.50;99.90
44229;DHT22;29904;51.058;5.378;2023-04-07T14:56:20;12.60;99.90
44229;DHT22;29904;51.058;5.378;2023-04-07T14:58:46;12.60;99.90
44229;DHT22;29904;51.058;5.378;2023-04-07T15:01:12;12.40;99.90
44229;DHT22;29904;51.058;5.378;2023-04-07T15:03:37;12.30;99.90
44229;DHT22;29904;51.058;5.378;2023-04-07T15:06:07;12.10;99.90
44229;DHT22;29904;51.058;5.378;2023-04-07T15:08:35;11.90;99.90
44229;DHT22;29904;51.058;5.378;2023-04-07T15:11:03;11.90;99.90
44229;DHT22;29904;51.058;5.378;2023-04-07T15:13:30;11.80;99.90
44229;DHT22;29904;51.058;5.378;2023-04-07T15:15:56;11.70;99.90
44229;DHT22;29904;51.058;5.378;2023-04-07T15:18:30;11.50;99.90
44229;DHT22;29904;51.058;5.378;2023-04-07T15:20:55;11.30;99.90
44229;DHT22;29904;51.058;5.378;2023-04-07T15:23:21;11.30;99.90
44229;DHT22;29904;51.058;5.378;2023-04-07T15:25:47;11.20;99.90
44229;DHT22;29904;51.058;5.378;2023-04-07T15:28:15;11.20;99.90
44229;DHT22;29904;51.058;5.378;2023-04-07T15:30:41;11.10;99.90
44229;DHT22;29904;51.058;5.378;2023-04-07T15:33:07;11.10;99.90
44229;DHT22;29904;51.058;5.378;2023-04-07T15:35:33;11.10;99.90
44229;DHT22;29904;51.058;5.378;2023-04-07T15:37:58;11.10;99.90
44229;DHT22;29904;51.058;5.378;2023-04-07T15:40:24;11.10;99.90
44229;DHT22;29904;51.058;5.378;2023-04-07T15:42:50;11.20;99.90
44229;DHT22;29904;51.058;5.378;2023-04-07T15:45:16;11.20;99.90
44229;DHT22;29904;51.058;5.378;2023-04-07T15:47:41;11.30;99.90
44229;DHT22;29904;51.058;5.378;2023-04-07T15:50:07;11.30;99.90
44229;DHT22;29904;51.058;5.378;2023-04-07T15:52:33;11.40;99.90
44229;DHT22;29904;51.058;5.378;2023-04-07T15:54:59;11.40;99.90
44229;DHT22;29904;51.058;5.378;2023-04-07T15:57:25;11.40;99.90